sensor_id;sensor_type;location;lat;lon;timestamp;temperature;humidity
68476;DHT22;55464;48.266;14.188;2022-12-07T00:00:28;3.90;88.70
68476;DHT22;55464;48.266;14.188;2022-12-07T00:02:54;3.90;88.70
68476;DHT22;55464;48.266;14.188;2022-12-07T00:05:20;3.90;88.80
68476;DHT22;55464;48.266;14.188;2022-12-07T00:07:45;3.90;89.00
68476;DHT22;55464;48.266;14.188;2022-12-07T00:10:11;3.90;89.00
68476;DHT22;55464;48.266;14.188;2022-12-07T00:12:36;3.90;89.10
68476;DHT22;55464;48.266;14.188;2022-12-07T00:15:02;3.90;89.20
68476;DHT22;55464;48.266;14.188;2022-12-07T00:17:28;3.90;89.30
68476;DHT22;55464;48.266;14.188;2022-12-07T00:19:54;3.80;89.40
68476;DHT22;55464;48.266;14.188;2022-12-07T00:22:19;3.90;89.20
68476;DHT22;55464;48.266;14.188;2022-12-07T00:24:45;3.90;89.10
68476;DHT22;55464;48.266;14.188;2022-12-07T00:27:11;3.90;89.00
68476;DHT22;55464;48.266;14.188;2022-12-07T00:29:36;3.90;89.10
68476;DHT22;55464;48.266;14.188;2022-12-07T00:32:03;3.90;89.10
68476;DHT22;55464;48.266;14.188;2022-12-07T00:34:29;3.90;89.10
68476;DHT22;55464;48.266;14.188;2022-12-07T00:36:55;3.90;89.20
68476;DHT22;55464;48.266;14.188;2022-12-07T00:39:20;3.90;89.20
68476;DHT22;55464;48.266;14.188;2022-12-07T00:41:46;3.90;89.00
68476;DHT22;55464;48.266;14.188;2022-12-07T00:44:12;3.90;88.80
68476;DHT22;55464;48.266;14.188;2022-12-07T00:46:38;3.90;88.70
68476;DHT22;55464;48.266;14.188;2022-12-07T00:49:03;3.90;88.60
68476;DHT22;55464;48.266;14.188;2022-12-07T00:51:29;3.90;88.80
68476;DHT22;55464;48.266;14.188;2022-12-07T00:53:55;3.80;88.80
68476;DHT22;55464;48.266;14.188;2022-12-07T00:56:25;3.80;89.10
68476;DHT22;55464;48.266;14.188;2022-12-07T00:59:03;3.80;89.10
68476;DHT22;55464;48.266;14.188;2022-12-07T01:01:32;3.80;89.10
68476;DHT22;55464;48.266;14.188;2022-12-07T01:03:57;3.80;89.10
68476;DHT22;55464;48.266;14.188;2022-12-07T01:06:24;3.80;88.90
68476;DHT22;55464;48.266;14.188;2022-12-07T01:08:51;3.80;88.70
68476;DHT22;55464;48.266;14.188;2022-12-07T01:11:20;3.80;88.90
68476;DHT22;55464;48.266;14.188;2022-12-07T01:13:48;3.80;88.50
68476;DHT22;55464;48.266;14.188;2022-12-07T01:16:15;3.80;88.60
68476;DHT22;55464;48.266;14.188;2022-12-07T01:18:42;3.80;88.70
68476;DHT22;55464;48.266;14.188;2022-12-07T01:21:12;3.80;88.70
68476;DHT22;55464;48.266;14.188;2022-12-07T01:23:38;3.80;88.70
68476;DHT22;55464;48.266;14.188;2022-12-07T01:26:06;3.80;88.60
68476;DHT22;55464;48.266;14.188;2022-12-07T01:28:32;3.80;88.60
68476;DHT22;55464;48.266;14.188;2022-12-07T01:31:04;3.80;88.60
68476;DHT22;55464;48.266;14.188;2022-12-07T01:33:32;3.80;88.30
68476;DHT22;55464;48.266;14.188;2022-12-07T01:36:16;3.80;88.10
68476;DHT22;55464;48.266;14.188;2022-12-07T01:38:43;3.80;88.20
68476;DHT22;55464;48.266;14.188;2022-12-07T01:41:09;3.70;88.30
68476;DHT22;55464;48.266;14.188;2022-12-07T01:43:35;3.80;88.40
68476;DHT22;55464;48.266;14.188;2022-12-07T01:46:03;3.80;88.10
68476;DHT22;55464;48.266;14.188;2022-12-07T01:48:38;3.70;88.10
68476;DHT22;55464;48.266;14.188;2022-12-07T01:51:10;3.70;88.10
68476;DHT22;55464;48.266;14.188;2022-12-07T01:53:38;3.70;88.10
68476;DHT22;55464;48.266;14.188;2022-12-07T01:56:06;3.80;88.10
68476;DHT22;55464;48.266;14.188;2022-12-07T01:58:33;3.70;88.20
68476;DHT22;55464;48.266;14.188;2022-12-07T02:01:00;3.70;88.20
68476;DHT22;55464;48.266;14.188;2022-12-07T02:03:33;3.70;88.10
68476;DHT22;55464;48.266;14.188;2022-12-07T02:06:00;3.70;88.40
68476;DHT22;55464;48.266;14.188;2022-12-07T02:08:26;3.70;88.30
68476;DHT22;55464;48.266;14.188;2022-12-07T02:10:51;3.70;88.40
68476;DHT22;55464;48.266;14.188;2022-12-07T02:13:26;3.70;88.30
68476;DHT22;55464;48.266;14.188;2022-12-07T02:30:11;3.60;88.00
68476;DHT22;55464;48.266;14.188;2022-12-07T02:32:43;3.60;88.20
68476;DHT22;55464;48.266;14.188;2022-12-07T02:35:20;3.60;88.00
68476;DHT22;55464;48.266;14.188;2022-12-07T02:40:33;3.60;88.20
68476;DHT22;55464;48.266;14.188;2022-12-07T02:43:06;3.70;87.90
68476;DHT22;55464;48.266;14.188;2022-12-07T02:45:35;3.60;87.80
68476;DHT22;55464;48.266;14.188;2022-12-07T02:48:02;3.60;87.80
68476;DHT22;55464;48.266;14.188;2022-12-07T02:50:29;3.60;87.90
68476;DHT22;55464;48.266;14.188;2022-12-07T02:52:55;3.60;87.80
68476;DHT22;55464;48.266;14.188;2022-12-07T02:55:31;3.60;87.80
68476;DHT22;55464;48.266;14.188;2022-12-07T03:01:19;3.60;87.70
68476;DHT22;55464;48.266;14.188;2022-12-07T03:03:42;3.60;87.40
68476;DHT22;55464;48.266;14.188;2022-12-07T03:06:30;3.70;87.10
68476;DHT22;55464;48.266;14.188;2022-12-07T03:11:33;3.70;87.20
68476;DHT22;55464;48.266;14.188;2022-12-07T03:14:26;3.60;87.20
68476;DHT22;55464;48.266;14.188;2022-12-07T03:17:00;3.60;87.30
68476;DHT22;55464;48.266;14.188;2022-12-07T03:19:29;3.60;87.30
68476;DHT22;55464;48.266;14.188;2022-12-07T03:22:00;3.70;87.10
68476;DHT22;55464;48.266;14.188;2022-12-07T03:25:04;3.70;86.90
68476;DHT22;55464;48.266;14.188;2022-12-07T03:29:59;3.60;87.30
68476;DHT22;55464;48.266;14.188;2022-12-07T03:35:17;3.60;87.00
68476;DHT22;55464;48.266;14.188;2022-12-07T03:40:31;3.70;86.70
68476;DHT22;55464;48.266;14.188;2022-12-07T03:42:59;3.60;86.90
68476;DHT22;55464;48.266;14.188;2022-12-07T03:45:44;3.60;86.80
68476;DHT22;55464;48.266;14.188;2022-12-07T03:48:25;3.60;86.80
68476;DHT22;55464;48.266;14.188;2022-12-07T03:53:36;3.60;86.40
68476;DHT22;55464;48.266;14.188;2022-12-07T03:56:03;3.60;86.60
68476;DHT22;55464;48.266;14.188;2022-12-07T03:58:29;3.60;86.40
68476;DHT22;55464;48.266;14.188;2022-12-07T04:00:56;3.60;86.30
68476;DHT22;55464;48.266;14.188;2022-12-07T04:03:21;3.60;86.20
68476;DHT22;55464;48.266;14.188;2022-12-07T04:05:47;3.60;86.10
68476;DHT22;55464;48.266;14.188;2022-12-07T04:08:13;3.60;86.20
68476;DHT22;55464;48.266;14.188;2022-12-07T04:10:38;3.50;86.40
68476;DHT22;55464;48.266;14.188;2022-12-07T04:13:04;3.50;86.80
68476;DHT22;55464;48.266;14.188;2022-12-07T04:15:30;3.50;87.00
68476;DHT22;55464;48.266;14.188;2022-12-07T04:17:55;3.50;86.90
68476;DHT22;55464;48.266;14.188;2022-12-07T04:20:21;3.50;87.10
68476;DHT22;55464;48.266;14.188;2022-12-07T04:22:47;3.50;87.20
68476;DHT22;55464;48.266;14.188;2022-12-07T04:25:13;3.50;87.40
68476;DHT22;55464;48.266;14.188;2022-12-07T04:27:38;3.50;87.40
68476;DHT22;55464;48.266;14.188;2022-12-07T04:30:04;3.50;87.00
68476;DHT22;55464;48.266;14.188;2022-12-07T04:32:30;3.50;87.00
68476;DHT22;55464;48.266;14.188;2022-12-07T04:34:56;3.50;87.00
68476;DHT22;55464;48.266;14.188;2022-12-07T04:37:22;3.50;87.10
68476;DHT22;55464;48.266;14.188;2022-12-07T04:39:48;3.50;86.90
68476;DHT22;55464;48.266;14.188;2022-12-07T04:42:14;3.50;86.90
68476;DHT22;55464;48.266;14.188;2022-12-07T04:44:40;3.50;87.00
68476;DHT22;55464;48.266;14.188;2022-12-07T04:47:06;3.50;87.10
68476;DHT22;55464;48.266;14.188;2022-12-07T04:49:31;3.50;87.00
68476;DHT22;55464;48.266;14.188;2022-12-07T04:51:57;3.50;87.20
68476;DHT22;55464;48.266;14.188;2022-12-07T04:54:23;3.50;87.20
68476;DHT22;55464;48.266;14.188;2022-12-07T04:56:49;3.50;87.00
68476;DHT22;55464;48.266;14.188;2022-12-07T04:59:15;3.50;86.70
68476;DHT22;55464;48.266;14.188;2022-12-07T05:01:41;3.50;87.00
68476;DHT22;55464;48.266;14.188;2022-12-07T05:04:08;3.50;86.90
68476;DHT22;55464;48.266;14.188;2022-12-07T05:06:34;3.50;86.80
68476;DHT22;55464;48.266;14.188;2022-12-07T05:09:00;3.50;86.90
68476;DHT22;55464;48.266;14.188;2022-12-07T05:11:26;3.50;86.90
68476;DHT22;55464;48.266;14.188;2022-12-07T05:14:38;3.50;86.80
68476;DHT22;55464;48.266;14.188;2022-12-07T05:16:56;3.50;86.90
68476;DHT22;55464;48.266;14.188;2022-12-07T05:19:22;3.50;86.50
68476;DHT22;55464;48.266;14.188;2022-12-07T05:21:48;3.50;86.60
68476;DHT22;55464;48.266;14.188;2022-12-07T05:24:15;3.50;86.70
68476;DHT22;55464;48.266;14.188;2022-12-07T05:26:41;3.50;86.60
68476;DHT22;55464;48.266;14.188;2022-12-07T05:29:07;3.50;86.40
68476;DHT22;55464;48.266;14.188;2022-12-07T05:31:33;3.50;86.40
68476;DHT22;55464;48.266;14.188;2022-12-07T05:33:59;3.50;86.10
68476;DHT22;55464;48.266;14.188;2022-12-07T05:36:25;3.50;86.10
68476;DHT22;55464;48.266;14.188;2022-12-07T05:38:50;3.40;86.30
68476;DHT22;55464;48.266;14.188;2022-12-07T05:41:17;3.50;86.20
68476;DHT22;55464;48.266;14.188;2022-12-07T05:44:02;3.40;86.10
68476;DHT22;55464;48.266;14.188;2022-12-07T05:46:28;3.50;85.70
68476;DHT22;55464;48.266;14.188;2022-12-07T05:48:53;3.50;85.90
68476;DHT22;55464;48.266;14.188;2022-12-07T05:51:19;3.50;85.90
68476;DHT22;55464;48.266;14.188;2022-12-07T05:53:45;3.50;86.10
68476;DHT22;55464;48.266;14.188;2022-12-07T05:56:10;3.40;85.90
68476;DHT22;55464;48.266;14.188;2022-12-07T05:58:36;3.40;85.80
68476;DHT22;55464;48.266;14.188;2022-12-07T06:01:20;3.40;85.80
68476;DHT22;55464;48.266;14.188;2022-12-07T06:03:46;3.50;85.70
68476;DHT22;55464;48.266;14.188;2022-12-07T06:06:12;3.40;85.80
68476;DHT22;55464;48.266;14.188;2022-12-07T06:08:37;3.50;85.80
68476;DHT22;55464;48.266;14.188;2022-12-07T06:11:03;3.40;85.80
68476;DHT22;55464;48.266;14.188;2022-12-07T06:13:47;3.40;85.80
68476;DHT22;55464;48.266;14.188;2022-12-07T06:16:13;3.40;86.00
68476;DHT22;55464;48.266;14.188;2022-12-07T06:18:38;3.40;85.70
68476;DHT22;55464;48.266;14.188;2022-12-07T06:21:04;3.30;85.60
68476;DHT22;55464;48.266;14.188;2022-12-07T06:23:30;3.40;85.30
68476;DHT22;55464;48.266;14.188;2022-12-07T06:25:55;3.50;84.90
68476;DHT22;55464;48.266;14.188;2022-12-07T06:28:21;3.40;84.60
68476;DHT22;55464;48.266;14.188;2022-12-07T06:30:47;3.40;84.70
68476;DHT22;55464;48.266;14.188;2022-12-07T06:33:12;3.40;84.20
68476;DHT22;55464;48.266;14.188;2022-12-07T06:35:38;3.40;83.60
68476;DHT22;55464;48.266;14.188;2022-12-07T06:38:03;3.30;83.40
68476;DHT22;55464;48.266;14.188;2022-12-07T06:40:29;3.40;83.20
68476;DHT22;55464;48.266;14.188;2022-12-07T06:42:55;3.50;82.50
68476;DHT22;55464;48.266;14.188;2022-12-07T06:45:20;3.50;82.60
68476;DHT22;55464;48.266;14.188;2022-12-07T06:47:46;3.50;81.70
68476;DHT22;55464;48.266;14.188;2022-12-07T06:50:12;3.50;81.30
68476;DHT22;55464;48.266;14.188;2022-12-07T06:52:37;3.50;81.30
68476;DHT22;55464;48.266;14.188;2022-12-07T06:55:03;3.50;81.50
68476;DHT22;55464;48.266;14.188;2022-12-07T06:57:29;3.50;81.70
68476;DHT22;55464;48.266;14.188;2022-12-07T06:59:55;3.60;81.30
68476;DHT22;55464;48.266;14.188;2022-12-07T07:02:20;3.50;81.20
68476;DHT22;55464;48.266;14.188;2022-12-07T07:04:46;3.50;81.60
68476;DHT22;55464;48.266;14.188;2022-12-07T07:07:12;3.50;81.40
68476;DHT22;55464;48.266;14.188;2022-12-07T07:09:37;3.50;81.40
68476;DHT22;55464;48.266;14.188;2022-12-07T07:12:03;3.50;81.50
68476;DHT22;55464;48.266;14.188;2022-12-07T07:14:29;3.60;81.40
68476;DHT22;55464;48.266;14.188;2022-12-07T07:16:55;3.60;81.20
68476;DHT22;55464;48.266;14.188;2022-12-07T07:19:20;3.50;81.10
68476;DHT22;55464;48.266;14.188;2022-12-07T07:21:46;3.50;81.30
68476;DHT22;55464;48.266;14.188;2022-12-07T07:24:11;3.50;81.20
68476;DHT22;55464;48.266;14.188;2022-12-07T07:26:37;3.50;80.10
68476;DHT22;55464;48.266;14.188;2022-12-07T07:29:03;3.60;79.60
68476;DHT22;55464;48.266;14.188;2022-12-07T07:31:29;3.60;78.80
68476;DHT22;55464;48.266;14.188;2022-12-07T07:33:54;3.60;79.30
68476;DHT22;55464;48.266;14.188;2022-12-07T07:36:20;3.60;78.90
68476;DHT22;55464;48.266;14.188;2022-12-07T07:38:46;3.60;78.90
68476;DHT22;55464;48.266;14.188;2022-12-07T07:41:11;3.50;79.30
68476;DHT22;55464;48.266;14.188;2022-12-07T07:43:37;3.50;79.30
68476;DHT22;55464;48.266;14.188;2022-12-07T07:46:02;3.50;79.10
68476;DHT22;55464;48.266;14.188;2022-12-07T07:48:28;3.50;79.60
68476;DHT22;55464;48.266;14.188;2022-12-07T07:50:54;3.60;79.70
68476;DHT22;55464;48.266;14.188;2022-12-07T07:53:19;3.60;79.50
68476;DHT22;55464;48.266;14.188;2022-12-07T07:55:52;3.60;79.50
68476;DHT22;55464;48.266;14.188;2022-12-07T07:58:18;3.60;79.20
68476;DHT22;55464;48.266;14.188;2022-12-07T08:00:44;3.60;79.40
68476;DHT22;55464;48.266;14.188;2022-12-07T08:03:10;3.60;79.40
68476;DHT22;55464;48.266;14.188;2022-12-07T08:05:37;3.60;79.20
68476;DHT22;55464;48.266;14.188;2022-12-07T08:08:02;3.70;79.20
68476;DHT22;55464;48.266;14.188;2022-12-07T08:10:28;3.70;78.80
68476;DHT22;55464;48.266;14.188;2022-12-07T08:12:54;3.70;79.40
68476;DHT22;55464;48.266;14.188;2022-12-07T08:15:49;3.60;79.20
68476;DHT22;55464;48.266;14.188;2022-12-07T08:18:15;3.70;79.30
68476;DHT22;55464;48.266;14.188;2022-12-07T08:20:41;3.70;78.90
68476;DHT22;55464;48.266;14.188;2022-12-07T08:23:11;3.70;79.10
68476;DHT22;55464;48.266;14.188;2022-12-07T08:25:37;3.70;79.40
68476;DHT22;55464;48.266;14.188;2022-12-07T08:28:03;3.70;79.60
68476;DHT22;55464;48.266;14.188;2022-12-07T08:30:30;3.70;79.80
68476;DHT22;55464;48.266;14.188;2022-12-07T08:32:56;3.80;79.50
68476;DHT22;55464;48.266;14.188;2022-12-07T08:35:22;3.70;79.50
68476;DHT22;55464;48.266;14.188;2022-12-07T08:37:48;3.80;79.30
68476;DHT22;55464;48.266;14.188;2022-12-07T08:40:14;3.80;79.60
68476;DHT22;55464;48.266;14.188;2022-12-07T08:42:43;3.80;79.60
68476;DHT22;55464;48.266;14.188;2022-12-07T08:45:14;3.90;79.60
68476;DHT22;55464;48.266;14.188;2022-12-07T08:48:08;3.90;79.30
68476;DHT22;55464;48.266;14.188;2022-12-07T08:50:32;3.90;79.60
68476;DHT22;55464;48.266;14.188;2022-12-07T08:53:00;4.00;79.70
68476;DHT22;55464;48.266;14.188;2022-12-07T08:55:27;4.00;79.80
68476;DHT22;55464;48.266;14.188;2022-12-07T08:57:54;4.00;80.00
68476;DHT22;55464;48.266;14.188;2022-12-07T09:00:20;4.00;79.50
68476;DHT22;55464;48.266;14.188;2022-12-07T09:02:46;4.00;79.80
68476;DHT22;55464;48.266;14.188;2022-12-07T09:05:12;4.00;79.60
68476;DHT22;55464;48.266;14.188;2022-12-07T09:07:40;4.00;79.80
68476;DHT22;55464;48.266;14.188;2022-12-07T09:10:09;4.00;79.60
68476;DHT22;55464;48.266;14.188;2022-12-07T09:12:34;4.00;80.10
68476;DHT22;55464;48.266;14.188;2022-12-07T09:15:00;4.00;79.90
68476;DHT22;55464;48.266;14.188;2022-12-07T09:17:26;4.00;80.30
68476;DHT22;55464;48.266;14.188;2022-12-07T09:19:52;4.00;80.10
68476;DHT22;55464;48.266;14.188;2022-12-07T09:22:17;4.00;80.10
68476;DHT22;55464;48.266;14.188;2022-12-07T09:24:43;4.00;80.10
68476;DHT22;55464;48.266;14.188;2022-12-07T09:27:11;4.00;80.30
68476;DHT22;55464;48.266;14.188;2022-12-07T09:29:37;4.10;80.20
68476;DHT22;55464;48.266;14.188;2022-12-07T09:32:03;4.10;79.60
68476;DHT22;55464;48.266;14.188;2022-12-07T09:34:31;4.10;80.20
68476;DHT22;55464;48.266;14.188;2022-12-07T09:36:57;4.10;80.10
68476;DHT22;55464;48.266;14.188;2022-12-07T09:39:23;4.10;80.40
68476;DHT22;55464;48.266;14.188;2022-12-07T09:41:49;4.10;80.60
68476;DHT22;55464;48.266;14.188;2022-12-07T09:44:21;4.10;80.80
68476;DHT22;55464;48.266;14.188;2022-12-07T09:46:48;4.10;80.80
68476;DHT22;55464;48.266;14.188;2022-12-07T09:49:18;4.10;80.60
68476;DHT22;55464;48.266;14.188;2022-12-07T09:51:44;4.10;80.70
68476;DHT22;55464;48.266;14.188;2022-12-07T09:54:15;4.10;81.10
68476;DHT22;55464;48.266;14.188;2022-12-07T09:56:43;4.10;81.10
68476;DHT22;55464;48.266;14.188;2022-12-07T09:59:16;4.20;81.00
68476;DHT22;55464;48.266;14.188;2022-12-07T10:01:44;4.30;81.50
68476;DHT22;55464;48.266;14.188;2022-12-07T10:06:39;4.40;80.90
68476;DHT22;55464;48.266;14.188;2022-12-07T10:09:12;4.40;81.10
68476;DHT22;55464;48.266;14.188;2022-12-07T10:14:30;4.50;80.20
68476;DHT22;55464;48.266;14.188;2022-12-07T10:16:57;4.50;80.50
68476;DHT22;55464;48.266;14.188;2022-12-07T10:19:24;4.50;80.40
68476;DHT22;55464;48.266;14.188;2022-12-07T10:22:05;4.60;80.50
68476;DHT22;55464;48.266;14.188;2022-12-07T10:24:34;4.50;80.10
68476;DHT22;55464;48.266;14.188;2022-12-07T10:27:00;4.60;80.30
68476;DHT22;55464;48.266;14.188;2022-12-07T10:29:34;4.60;79.50
68476;DHT22;55464;48.266;14.188;2022-12-07T10:32:05;4.60;79.50
68476;DHT22;55464;48.266;14.188;2022-12-07T10:34:34;4.70;79.50
68476;DHT22;55464;48.266;14.188;2022-12-07T10:39:57;4.60;79.10
68476;DHT22;55464;48.266;14.188;2022-12-07T10:42:30;4.70;79.40
68476;DHT22;55464;48.266;14.188;2022-12-07T10:45:14;4.60;79.30
68476;DHT22;55464;48.266;14.188;2022-12-07T11:12:05;5.60;76.10
68476;DHT22;55464;48.266;14.188;2022-12-07T11:17:24;5.60;74.20
68476;DHT22;55464;48.266;14.188;2022-12-07T11:28:46;6.90;67.70
68476;DHT22;55464;48.266;14.188;2022-12-07T11:31:23;7.50;68.00
68476;DHT22;55464;48.266;14.188;2022-12-07T11:38:59;6.50;68.80
68476;DHT22;55464;48.266;14.188;2022-12-07T11:41:33;6.10;70.10
68476;DHT22;55464;48.266;14.188;2022-12-07T11:44:07;5.90;70.70
68476;DHT22;55464;48.266;14.188;2022-12-07T11:46:57;5.80;71.10
68476;DHT22;55464;48.266;14.188;2022-12-07T11:52:04;5.70;70.90
68476;DHT22;55464;48.266;14.188;2022-12-07T11:54:36;5.60;71.50
68476;DHT22;55464;48.266;14.188;2022-12-07T11:57:14;5.70;70.80
68476;DHT22;55464;48.266;14.188;2022-12-07T11:59:59;5.60;71.30
68476;DHT22;55464;48.266;14.188;2022-12-07T12:02:37;5.60;71.70
68476;DHT22;55464;48.266;14.188;2022-12-07T12:05:17;5.60;71.20
68476;DHT22;55464;48.266;14.188;2022-12-07T12:07:45;5.50;71.80
68476;DHT22;55464;48.266;14.188;2022-12-07T12:10:22;5.50;72.40
68476;DHT22;55464;48.266;14.188;2022-12-07T12:13:23;5.30;72.80
68476;DHT22;55464;48.266;14.188;2022-12-07T12:21:22;5.50;73.10
68476;DHT22;55464;48.266;14.188;2022-12-07T12:26:24;5.60;73.00
68476;DHT22;55464;48.266;14.188;2022-12-07T12:29:01;5.60;72.50
68476;DHT22;55464;48.266;14.188;2022-12-07T12:33:55;5.60;72.20
68476;DHT22;55464;48.266;14.188;2022-12-07T12:47:01;5.60;70.30
68476;DHT22;55464;48.266;14.188;2022-12-07T12:49:43;5.60;71.20
68476;DHT22;55464;48.266;14.188;2022-12-07T12:52:49;5.60;71.50
68476;DHT22;55464;48.266;14.188;2022-12-07T12:57:32;7.80;65.90
68476;DHT22;55464;48.266;14.188;2022-12-07T13:00:01;8.60;60.80
68476;DHT22;55464;48.266;14.188;2022-12-07T13:02:37;9.50;58.20
68476;DHT22;55464;48.266;14.188;2022-12-07T13:18:41;6.80;61.90
68476;DHT22;55464;48.266;14.188;2022-12-07T13:29:14;6.00;67.80
68476;DHT22;55464;48.266;14.188;2022-12-07T13:31:46;5.80;68.20
68476;DHT22;55464;48.266;14.188;2022-12-07T13:34:31;5.70;68.30
68476;DHT22;55464;48.266;14.188;2022-12-07T13:36:58;5.60;67.80
68476;DHT22;55464;48.266;14.188;2022-12-07T13:39:26;5.60;68.50
68476;DHT22;55464;48.266;14.188;2022-12-07T13:41:56;5.60;69.40
68476;DHT22;55464;48.266;14.188;2022-12-07T13:44:24;5.60;68.90
68476;DHT22;55464;48.266;14.188;2022-12-07T13:46:58;5.50;69.10
68476;DHT22;55464;48.266;14.188;2022-12-07T13:49:27;5.50;69.00
68476;DHT22;55464;48.266;14.188;2022-12-07T13:51:54;5.60;69.00
68476;DHT22;55464;48.266;14.188;2022-12-07T13:54:22;5.50;69.60
68476;DHT22;55464;48.266;14.188;2022-12-07T13:56:51;5.50;70.30
68476;DHT22;55464;48.266;14.188;2022-12-07T13:59:20;5.60;69.50
68476;DHT22;55464;48.266;14.188;2022-12-07T14:01:48;5.60;69.50
68476;DHT22;55464;48.266;14.188;2022-12-07T14:06:49;5.50;69.90
68476;DHT22;55464;48.266;14.188;2022-12-07T14:09:19;5.50;69.60
68476;DHT22;55464;48.266;14.188;2022-12-07T14:11:47;5.60;69.50
68476;DHT22;55464;48.266;14.188;2022-12-07T14:14:32;5.60;69.10
68476;DHT22;55464;48.266;14.188;2022-12-07T14:19:53;5.50;68.50
68476;DHT22;55464;48.266;14.188;2022-12-07T14:22:37;5.40;69.20
68476;DHT22;55464;48.266;14.188;2022-12-07T14:25:24;5.40;70.00
68476;DHT22;55464;48.266;14.188;2022-12-07T14:27:55;5.30;69.90
68476;DHT22;55464;48.266;14.188;2022-12-07T14:30:23;5.30;70.10
68476;DHT22;55464;48.266;14.188;2022-12-07T14:32:53;5.20;70.40
68476;DHT22;55464;48.266;14.188;2022-12-07T14:35:20;5.20;70.50
68476;DHT22;55464;48.266;14.188;2022-12-07T14:37:48;5.10;70.30
68476;DHT22;55464;48.266;14.188;2022-12-07T14:40:22;5.10;70.50
68476;DHT22;55464;48.266;14.188;2022-12-07T14:42:51;5.20;70.80
68476;DHT22;55464;48.266;14.188;2022-12-07T14:45:20;5.10;71.60
68476;DHT22;55464;48.266;14.188;2022-12-07T14:47:46;5.10;71.90
68476;DHT22;55464;48.266;14.188;2022-12-07T14:50:15;5.00;72.30
68476;DHT22;55464;48.266;14.188;2022-12-07T14:52:43;5.00;73.10
68476;DHT22;55464;48.266;14.188;2022-12-07T14:55:30;5.00;73.90
68476;DHT22;55464;48.266;14.188;2022-12-07T14:57:57;4.80;74.90
68476;DHT22;55464;48.266;14.188;2022-12-07T15:00:25;4.80;75.40
68476;DHT22;55464;48.266;14.188;2022-12-07T15:02:51;4.80;75.40
68476;DHT22;55464;48.266;14.188;2022-12-07T15:05:17;4.70;75.20
68476;DHT22;55464;48.266;14.188;2022-12-07T15:07:44;4.60;74.50
68476;DHT22;55464;48.266;14.188;2022-12-07T15:12:41;4.70;73.40
68476;DHT22;55464;48.266;14.188;2022-12-07T15:15:07;4.60;73.80
68476;DHT22;55464;48.266;14.188;2022-12-07T15:17:33;4.70;74.00
68476;DHT22;55464;48.266;14.188;2022-12-07T15:19:59;4.60;74.80
68476;DHT22;55464;48.266;14.188;2022-12-07T15:22:24;4.60;75.20
68476;DHT22;55464;48.266;14.188;2022-12-07T15:24:51;4.50;75.40
68476;DHT22;55464;48.266;14.188;2022-12-07T15:27:17;4.40;75.80
68476;DHT22;55464;48.266;14.188;2022-12-07T15:29:43;4.30;76.20
68476;DHT22;55464;48.266;14.188;2022-12-07T15:32:08;4.10;76.70
68476;DHT22;55464;48.266;14.188;2022-12-07T15:34:34;3.90;77.80
68476;DHT22;55464;48.266;14.188;2022-12-07T15:37:00;3.90;77.90
68476;DHT22;55464;48.266;14.188;2022-12-07T15:39:25;3.90;77.70
68476;DHT22;55464;48.266;14.188;2022-12-07T15:41:51;3.90;77.50
68476;DHT22;55464;48.266;14.188;2022-12-07T15:44:17;3.90;77.70
68476;DHT22;55464;48.266;14.188;2022-12-07T15:47:01;3.90;77.90
68476;DHT22;55464;48.266;14.188;2022-12-07T15:49:27;3.90;77.70
68476;DHT22;55464;48.266;14.188;2022-12-07T15:51:53;4.00;77.70
68476;DHT22;55464;48.266;14.188;2022-12-07T15:56:46;4.00;76.80
68476;DHT22;55464;48.266;14.188;2022-12-07T15:59:12;4.10;76.10
68476;DHT22;55464;48.266;14.188;2022-12-07T16:01:37;4.00;76.30
68476;DHT22;55464;48.266;14.188;2022-12-07T16:04:03;4.10;76.40
68476;DHT22;55464;48.266;14.188;2022-12-07T16:06:29;4.10;76.20
68476;DHT22;55464;48.266;14.188;2022-12-07T16:08:55;4.10;76.00
68476;DHT22;55464;48.266;14.188;2022-12-07T16:11:21;4.10;76.10
68476;DHT22;55464;48.266;14.188;2022-12-07T16:13:47;4.20;75.80
68476;DHT22;55464;48.266;14.188;2022-12-07T16:16:14;4.10;76.00
68476;DHT22;55464;48.266;14.188;2022-12-07T16:18:42;4.10;76.10
68476;DHT22;55464;48.266;14.188;2022-12-07T16:21:08;4.10;76.30
68476;DHT22;55464;48.266;14.188;2022-12-07T16:23:34;4.10;75.90
68476;DHT22;55464;48.266;14.188;2022-12-07T16:26:07;4.10;75.90
68476;DHT22;55464;48.266;14.188;2022-12-07T16:28:33;4.20;75.90
68476;DHT22;55464;48.266;14.188;2022-12-07T16:31:07;4.20;76.00
68476;DHT22;55464;48.266;14.188;2022-12-07T16:33:38;4.20;75.80
68476;DHT22;55464;48.266;14.188;2022-12-07T16:36:05;4.20;75.70
68476;DHT22;55464;48.266;14.188;2022-12-07T16:38:31;4.20;75.80
68476;DHT22;55464;48.266;14.188;2022-12-07T16:40:57;4.30;75.90
68476;DHT22;55464;48.266;14.188;2022-12-07T16:43:23;4.30;76.00
68476;DHT22;55464;48.266;14.188;2022-12-07T16:45:49;4.30;76.50
68476;DHT22;55464;48.266;14.188;2022-12-07T16:48:15;4.20;76.70
68476;DHT22;55464;48.266;14.188;2022-12-07T16:50:42;4.20;76.50
68476;DHT22;55464;48.266;14.188;2022-12-07T16:53:09;4.10;76.70
68476;DHT22;55464;48.266;14.188;2022-12-07T16:55:39;4.20;76.70
68476;DHT22;55464;48.266;14.188;2022-12-07T16:58:05;4.20;76.50
68476;DHT22;55464;48.266;14.188;2022-12-07T17:00:32;4.20;77.20
68476;DHT22;55464;48.266;14.188;2022-12-07T17:02:58;4.10;77.60
68476;DHT22;55464;48.266;14.188;2022-12-07T17:05:23;4.10;76.60
68476;DHT22;55464;48.266;14.188;2022-12-07T17:07:50;4.10;76.50
68476;DHT22;55464;48.266;14.188;2022-12-07T17:10:16;4.20;76.30
68476;DHT22;55464;48.266;14.188;2022-12-07T17:12:41;4.20;76.20
68476;DHT22;55464;48.266;14.188;2022-12-07T17:15:08;4.10;76.30
68476;DHT22;55464;48.266;14.188;2022-12-07T17:20:09;4.10;76.60
68476;DHT22;55464;48.266;14.188;2022-12-07T17:22:35;4.10;76.60
68476;DHT22;55464;48.266;14.188;2022-12-07T17:25:01;4.10;76.80
68476;DHT22;55464;48.266;14.188;2022-12-07T17:27:26;4.10;76.90
68476;DHT22;55464;48.266;14.188;2022-12-07T17:29:52;4.00;77.40
68476;DHT22;55464;48.266;14.188;2022-12-07T17:32:18;4.00;77.60
68476;DHT22;55464;48.266;14.188;2022-12-07T17:34:44;4.00;77.60
68476;DHT22;55464;48.266;14.188;2022-12-07T17:37:09;4.00;77.80
68476;DHT22;55464;48.266;14.188;2022-12-07T17:39:35;4.00;78.00
68476;DHT22;55464;48.266;14.188;2022-12-07T17:42:01;4.10;78.20
68476;DHT22;55464;48.266;14.188;2022-12-07T17:44:45;4.10;78.30
68476;DHT22;55464;48.266;14.188;2022-12-07T17:47:10;4.10;78.90
68476;DHT22;55464;48.266;14.188;2022-12-07T17:49:36;4.00;78.80
68476;DHT22;55464;48.266;14.188;2022-12-07T17:52:02;3.90;78.70
68476;DHT22;55464;48.266;14.188;2022-12-07T17:54:46;3.90;78.80
68476;DHT22;55464;48.266;14.188;2022-12-07T17:57:12;3.90;78.90
68476;DHT22;55464;48.266;14.188;2022-12-07T17:59:37;3.90;79.10
68476;DHT22;55464;48.266;14.188;2022-12-07T18:02:03;4.00;79.40